Time;durP1;ratioP1;P1;durP2;ratioP2;P2;SDS_P1;SDS_P2;PMS_P1;PMS_P2;Temp;Humidity;BMP_temperature;BMP_pressure;BME280_temperature;BME280_humidity;BME280_pressure;Samples;Min_cycle;Max_cycle;Signal;HPM_P1;HPM_P2
2023/07/04 00:01:07;;;;;;;0.40;0.40;;;;;;;;;;7404938;19;20147;-89
2023/07/04 00:03:34;;;;;;;0.52;0.52;;;;;;;;;;7403707;19;20145;-89
2023/07/04 00:06:01;;;;;;;8.80;0.88;;;;;;;;;;7403656;19;20161;-90
2023/07/04 00:08:29;;;;;;;0.55;0.55;;;;;;;;;;7410087;19;20594;-90
2023/07/04 00:10:57;;;;;;;0.70;0.70;;;;;;;;;;7411656;19;20129;-89
2023/07/04 00:13:24;;;;;;;0.40;0.40;;;;;;;;;;7411260;19;20140;-90
2023/07/04 00:15:52;;;;;;;0.60;0.60;;;;;;;;;;7405852;19;20149;-91
2023/07/04 00:18:22;;;;;;;0.47;0.47;;;;;;;;;;7404785;19;20125;-90
2023/07/04 00:20:54;;;;;;;0.43;0.43;;;;;;;;;;7401073;19;20137;-90
2023/07/04 00:23:29;;;;;;;0.60;0.60;;;;;;;;;;7398597;19;20196;-90
2023/07/04 00:25:56;;;;;;;0.70;0.70;;;;;;;;;;7399876;19;20152;-91
2023/07/04 00:28:24;;;;;;;0.55;0.55;;;;;;;;;;7395380;19;20133;-92
2023/07/04 00:30:52;;;;;;;0.85;0.85;;;;;;;;;;7398087;19;20224;-92
2023/07/04 00:33:24;;;;;;;0.68;0.68;;;;;;;;;;7396983;19;20141;-91
2023/07/04 00:36:03;;;;;;;0.57;0.57;;;;;;;;;;7396270;19;20172;-91
2023/07/04 00:38:34;;;;;;;0.55;0.55;;;;;;;;;;7398659;19;20125;-91
2023/07/04 00:41:14;;;;;;;0.50;0.50;;;;;;;;;;7399693;19;20577;-91
2023/07/04 00:43:46;;;;;;;0.47;0.47;;;;;;;;;;7397425;19;20152;-91
2023/07/04 00:46:15;;;;;;;0.57;0.50;;;;;;;;;;7394878;19;20140;-91
2023/07/04 00:48:45;;;;;;;3.60;0.93;;;;;;;;;;7396415;19;20157;-91
2023/07/04 00:51:21;;;;;;;0.60;0.60;;;;;;;;;;7395601;19;20140;-91
2023/07/04 00:53:53;;;;;;;0.43;0.43;;;;;;;;;;7394853;19;20593;-91
2023/07/04 00:56:25;;;;;;;0.45;0.45;;;;;;;;;;7393177;19;20151;-92
2023/07/04 00:58:54;;;;;;;0.30;0.30;;;;;;;;;;7395250;19;20607;-91
2023/07/04 01:01:21;;;;;;;0.65;0.65;;;;;;;;;;7395525;19;20133;-92
2023/07/04 01:03:48;;;;;;;0.45;0.45;;;;;;;;;;7396608;19;20605;-92
2023/07/04 01:06:25;;;;;;;0.95;0.95;;;;;;;;;;7393477;19;20184;-92
2023/07/04 01:08:56;;;;;;;0.95;0.50;;;;;;;;;;7391104;19;20124;-91
2023/07/04 01:11:31;;;;;;;0.45;0.45;;;;;;;;;;7393216;19;20139;-91
2023/07/04 01:13:57;;;;;;;0.50;0.50;;;;;;;;;;7395701;19;20207;-91
2023/07/04 01:16:24;;;;;;;0.40;0.40;;;;;;;;;;7391433;19;20149;-91
2023/07/04 01:18:56;;;;;;;0.40;0.40;;;;;;;;;;7393726;19;20137;-92
2023/07/04 01:21:26;;;;;;;1.20;0.93;;;;;;;;;;7393769;19;20137;-92
2023/07/04 01:24:03;;;;;;;0.75;0.75;;;;;;;;;;7392893;19;20208;-91
2023/07/04 01:26:36;;;;;;;0.73;0.73;;;;;;;;;;7391872;19;20504;-92
2023/07/04 01:29:07;;;;;;;0.52;0.52;;;;;;;;;;7393377;19;20125;-91
2023/07/04 01:31:35;;;;;;;0.47;0.47;;;;;;;;;;7392124;19;20129;-90
2023/07/04 01:34:06;;;;;;;0.70;0.70;;;;;;;;;;7393193;19;20137;-91
2023/07/04 01:36:34;;;;;;;0.90;0.90;;;;;;;;;;7396262;19;20153;-89
2023/07/04 01:39:02;;;;;;;0.40;0.40;;;;;;;;;;7398316;19;20133;-90
2023/07/04 01:41:29;;;;;;;0.40;0.40;;;;;;;;;;7399212;19;20137;-90
2023/07/04 01:44:02;;;;;;;0.70;0.70;;;;;;;;;;7400990;19;20143;-90
2023/07/04 01:46:30;;;;;;;0.40;0.40;;;;;;;;;;7399917;19;20152;-90
2023/07/04 01:48:58;;;;;;;0.43;0.43;;;;;;;;;;7397357;19;20204;-90
2023/07/04 01:51:31;;;;;;;0.75;0.75;;;;;;;;;;7397885;19;20166;-90
2023/07/04 01:53:57;;;;;;;0.40;0.40;;;;;;;;;;7397212;19;20677;-90
2023/07/04 01:56:24;;;;;;;0.70;0.70;;;;;;;;;;7395755;19;20153;-90
2023/07/04 01:58:51;;;;;;;0.50;0.50;;;;;;;;;;7397734;19;20125;-90
2023/07/04 02:01:18;;;;;;;0.35;0.35;;;;;;;;;;7397455;19;20144;-90
2023/07/04 02:03:44;;;;;;;0.45;0.45;;;;;;;;;;7398617;19;20132;-89
2023/07/04 02:06:11;;;;;;;0.43;0.43;;;;;;;;;;7395648;19;20145;-90
2023/07/04 02:08:38;;;;;;;0.38;0.38;;;;;;;;;;7394547;19;20621;-90
2023/07/04 02:11:04;;;;;;;0.30;0.30;;;;;;;;;;7395686;19;20141;-90
2023/07/04 02:13:31;;;;;;;0.40;0.40;;;;;;;;;;7395151;19;20135;-90
2023/07/04 02:15:58;;;;;;;0.65;0.65;;;;;;;;;;7392720;19;20554;-90
2023/07/04 02:18:25;;;;;;;1.17;0.65;;;;;;;;;;7392889;19;20137;-90
2023/07/04 02:20:52;;;;;;;0.77;0.70;;;;;;;;;;7391827;19;20153;-90
2023/07/04 02:23:19;;;;;;;0.43;0.43;;;;;;;;;;7386881;19;20145;-91
2023/07/04 02:25:46;;;;;;;0.40;0.40;;;;;;;;;;7389291;19;20151;-90
2023/07/04 02:28:12;;;;;;;0.57;0.57;;;;;;;;;;7392739;19;20148;-91
2023/07/04 02:30:39;;;;;;;0.60;0.60;;;;;;;;;;7400090;19;20141;-91
2023/07/04 02:33:08;;;;;;;0.40;0.40;;;;;;;;;;7386434;19;20125;-91
2023/07/04 02:35:34;;;;;;;0.40;0.40;;;;;;;;;;7385509;19;20551;-91
2023/07/04 02:38:01;;;;;;;0.40;0.40;;;;;;;;;;7389048;19;20132;-91
2023/07/04 02:40:28;;;;;;;0.40;0.40;;;;;;;;;;7392411;19;20126;-91
2023/07/04 02:42:54;;;;;;;0.40;0.40;;;;;;;;;;7391274;19;20540;-91
2023/07/04 02:45:21;;;;;;;0.43;0.43;;;;;;;;;;7391099;19;20149;-91
2023/07/04 02:47:48;;;;;;;0.93;0.93;;;;;;;;;;7390931;19;20130;-90
2023/07/04 02:50:15;;;;;;;0.60;0.60;;;;;;;;;;7386420;19;20145;-91
2023/07/04 02:52:55;;;;;;;0.73;0.73;;;;;;;;;;7398016;19;20188;-89
2023/07/04 02:55:21;;;;;;;0.40;0.40;;;;;;;;;;7395094;19;20176;-91
2023/07/04 02:57:48;;;;;;;0.50;0.50;;;;;;;;;;7393797;19;20152;-90
2023/07/04 03:00:15;;;;;;;0.43;0.43;;;;;;;;;;7397596;19;20133;-90
2023/07/04 03:02:41;;;;;;;0.73;0.73;;;;;;;;;;7396874;19;20152;-91
2023/07/04 03:05:09;;;;;;;0.88;0.88;;;;;;;;;;7393097;19;20223;-91
2023/07/04 03:07:36;;;;;;;0.22;0.22;;;;;;;;;;7396123;19;20546;-90
2023/07/04 03:10:02;;;;;;;0.60;0.60;;;;;;;;;;7398720;19;20208;-91
2023/07/04 03:12:30;;;;;;;0.65;0.50;;;;;;;;;;7389349;19;20133;-90
2023/07/04 03:14:57;;;;;;;0.30;0.30;;;;;;;;;;7394144;19;20171;-92
2023/07/04 03:17:23;;;;;;;0.68;0.68;;;;;;;;;;7392920;19;20599;-91
2023/07/04 03:19:50;;;;;;;0.40;0.40;;;;;;;;;;7390982;19;20133;-91
2023/07/04 03:22:19;;;;;;;0.40;0.40;;;;;;;;;;7392004;19;20125;-91
2023/07/04 03:24:45;;;;;;;0.40;0.40;;;;;;;;;;7391467;19;20153;-90
2023/07/04 03:27:12;;;;;;;0.90;0.90;;;;;;;;;;7398220;19;20144;-90
2023/07/04 03:29:38;;;;;;;0.30;0.30;;;;;;;;;;7398763;19;20136;-90
2023/07/04 03:32:05;;;;;;;0.30;0.30;;;;;;;;;;7397487;19;20129;-91
2023/07/04 03:34:32;;;;;;;6.80;1.00;;;;;;;;;;7395022;19;21000;-90
2023/07/04 03:36:59;;;;;;;0.30;0.30;;;;;;;;;;7397324;19;20144;-90
2023/07/04 03:39:25;;;;;;;0.30;0.30;;;;;;;;;;7397138;19;20150;-90
2023/07/04 03:41:54;;;;;;;0.40;0.40;;;;;;;;;;7395729;19;20606;-91
2023/07/04 03:44:20;;;;;;;0.30;0.30;;;;;;;;;;7399209;19;20503;-90
2023/07/04 03:46:47;;;;;;;0.60;0.60;;;;;;;;;;7401553;19;20729;-90
2023/07/04 03:49:39;;;;;;;0.40;0.40;;;;;;;;;;7401282;19;20147;-90
2023/07/04 04:03:41;;;;;;;0.30;0.30;;;;;;;;;;7395236;19;20107;-91
2023/07/04 04:14:16;;;;;;;0.47;0.47;;;;;;;;;;7397222;19;20119;-90
2023/07/04 04:24:36;;;;;;;0.32;0.32;;;;;;;;;;7393513;19;20119;-91
2023/07/04 04:27:36;;;;;;;2.22;0.63;;;;;;;;;;7389380;19;20148;-91
2023/07/04 04:41:14;;;;;;;0.60;0.60;;;;;;;;;;7389070;19;20111;-90
2023/07/04 04:52:03;;;;;;;;;;;;;;;;;;;;;
2023/07/04 04:55:09;;;;;;;0.73;0.73;;;;;;;;;;7401032;19;20153;-91
2023/07/04 05:20:40;;;;;;;0.75;0.75;;;;;;;;;;7401446;19;20136;-90
2023/07/04 05:23:21;;;;;;;0.32;0.32;;;;;;;;;;7396876;19;20168;-90
2023/07/04 05:26:01;;;;;;;0.55;0.55;;;;;;;;;;7396870;19;20177;-91
2023/07/04 05:28:29;;;;;;;0.52;0.52;;;;;;;;;;7400030;19;20124;-90
2023/07/04 05:30:58;;;;;;;0.50;0.50;;;;;;;;;;7397266;19;20214;-91
2023/07/04 05:33:34;;;;;;;0.30;0.30;;;;;;;;;;7397076;19;20187;-90
2023/07/04 05:36:16;;;;;;;1.38;0.52;;;;;;;;;;7395595;19;20183;-90
2023/07/04 05:39:33;;;;;;;0.35;0.35;;;;;;;;;;7397901;19;20136;-90
2023/07/04 05:42:06;;;;;;;0.40;0.40;;;;;;;;;;7397990;19;20149;-90
2023/07/04 05:44:42;;;;;;;0.40;0.40;;;;;;;;;;7398163;19;20137;-90
2023/07/04 05:47:09;;;;;;;0.57;0.57;;;;;;;;;;7398269;19;20212;-91
2023/07/04 05:49:36;;;;;;;0.60;0.60;;;;;;;;;;7398180;19;20144;-90
2023/07/04 05:52:02;;;;;;;0.40;0.40;;;;;;;;;;7396079;19;20128;-91
2023/07/04 05:54:29;;;;;;;0.50;0.50;;;;;;;;;;7396973;19;20211;-90
2023/07/04 05:56:56;;;;;;;0.30;0.30;;;;;;;;;;7395467;19;20617;-90
2023/07/04 05:59:22;;;;;;;0.70;0.60;;;;;;;;;;7396974;19;20164;-90
2023/07/04 06:01:50;;;;;;;0.82;0.65;;;;;;;;;;7396247;19;20133;-91
2023/07/04 06:04:17;;;;;;;0.45;0.45;;;;;;;;;;7397303;19;20161;-91
2023/07/04 06:06:50;;;;;;;0.43;0.43;;;;;;;;;;7395622;19;20194;-90
2023/07/04 06:09:18;;;;;;;0.82;0.52;;;;;;;;;;7396903;19;20132;-90
2023/07/04 06:11:47;;;;;;;0.77;0.77;;;;;;;;;;7396519;19;20140;-91
2023/07/04 06:14:27;;;;;;;0.43;0.43;;;;;;;;;;7391992;19;20144;-89
2023/07/04 06:16:57;;;;;;;0.55;0.55;;;;;;;;;;7389138;19;20167;-87
2023/07/04 06:19:25;;;;;;;0.30;0.30;;;;;;;;;;7386428;19;20216;-87
2023/07/04 06:21:51;;;;;;;1.20;1.13;;;;;;;;;;7389613;19;20141;-87
2023/07/04 06:24:18;;;;;;;0.40;0.40;;;;;;;;;;7385336;19;20594;-87
2023/07/04 06:26:45;;;;;;;0.60;0.60;;;;;;;;;;7390994;19;20149;-86
2023/07/04 06:29:11;;;;;;;0.50;0.50;;;;;;;;;;7396999;19;20145;-87
2023/07/04 06:31:41;;;;;;;2.50;0.50;;;;;;;;;;7390805;19;20612;-87
2023/07/04 06:34:10;;;;;;;0.82;0.82;;;;;;;;;;7397710;19;20140;-87
2023/07/04 06:36:36;;;;;;;0.85;0.75;;;;;;;;;;7395476;19;20539;-87
2023/07/04 06:39:03;;;;;;;0.40;0.40;;;;;;;;;;7396069;19;20125;-87
2023/07/04 06:41:30;;;;;;;0.50;0.50;;;;;;;;;;7392996;19;20137;-86
2023/07/04 06:43:57;;;;;;;0.30;0.30;;;;;;;;;;7399316;19;20165;-90
2023/07/04 06:46:23;;;;;;;0.52;0.52;;;;;;;;;;7395766;19;20157;-88
2023/07/04 06:48:51;;;;;;;0.30;0.30;;;;;;;;;;7391438;19;20225;-87
2023/07/04 06:51:19;;;;;;;0.47;0.47;;;;;;;;;;7395773;19;20128;-85
2023/07/04 06:53:46;;;;;;;0.88;0.65;;;;;;;;;;7398421;19;20608;-86
2023/07/04 06:56:16;;;;;;;0.50;0.50;;;;;;;;;;7395480;19;20179;-85
2023/07/04 06:58:46;;;;;;;0.40;0.40;;;;;;;;;;7396487;19;20144;-88
2023/07/04 07:01:13;;;;;;;0.85;0.70;;;;;;;;;;7400743;19;20237;-85
2023/07/04 07:03:40;;;;;;;0.75;0.70;;;;;;;;;;7405064;19;20121;-86
2023/07/04 07:06:09;;;;;;;0.43;0.43;;;;;;;;;;7400298;19;20141;-86
2023/07/04 07:08:37;;;;;;;0.30;0.30;;;;;;;;;;7399911;19;20141;-86
2023/07/04 07:11:06;;;;;;;0.40;0.40;;;;;;;;;;7400841;19;20141;-86
2023/07/04 07:13:34;;;;;;;0.52;0.52;;;;;;;;;;7402798;19;20145;-86
2023/07/04 07:16:16;;;;;;;0.40;0.40;;;;;;;;;;7408924;19;20200;-86
2023/07/04 07:18:44;;;;;;;0.50;0.50;;;;;;;;;;7397158;19;20157;-86
2023/07/04 07:21:13;;;;;;;0.32;0.32;;;;;;;;;;7400122;19;20216;-86
2023/07/04 07:23:40;;;;;;;0.38;0.38;;;;;;;;;;7399946;19;20574;-86
2023/07/04 07:26:09;;;;;;;0.47;0.47;;;;;;;;;;7397528;19;20196;-85
2023/07/04 07:28:40;;;;;;;0.40;0.40;;;;;;;;;;7396130;19;20137;-86
2023/07/04 07:31:10;;;;;;;0.40;0.40;;;;;;;;;;7397432;19;20213;-86
2023/07/04 07:33:39;;;;;;;0.60;0.60;;;;;;;;;;7396491;19;20141;-85
2023/07/04 07:36:09;;;;;;;0.43;0.43;;;;;;;;;;7389794;19;20486;-85
2023/07/04 07:38:36;;;;;;;0.50;0.50;;;;;;;;;;7395127;19;20653;-86
2023/07/04 07:41:04;;;;;;;0.40;0.40;;;;;;;;;;7395597;19;20145;-86
2023/07/04 07:43:36;;;;;;;0.40;0.40;;;;;;;;;;7396655;19;20160;-86
2023/07/04 07:46:09;;;;;;;0.93;0.93;;;;;;;;;;7391831;19;20498;-86
2023/07/04 07:48:35;;;;;;;0.50;0.50;;;;;;;;;;7397892;19;20589;-86
2023/07/04 07:51:03;;;;;;;0.47;0.47;;;;;;;;;;7397378;19;20188;-86
2023/07/04 07:53:30;;;;;;;0.60;0.60;;;;;;;;;;7393525;19;20140;-86
2023/07/04 07:55:57;;;;;;;0.60;0.60;;;;;;;;;;7393025;19;20501;-86
2023/07/04 07:58:25;;;;;;;0.60;0.60;;;;;;;;;;7393328;19;20149;-86
2023/07/04 08:00:51;;;;;;;0.60;0.60;;;;;;;;;;7394743;19;20641;-87
2023/07/04 08:03:19;;;;;;;0.40;0.40;;;;;;;;;;7393495;19;20614;-86
2023/07/04 08:05:47;;;;;;;0.57;0.57;;;;;;;;;;7396143;19;20147;-86
2023/07/04 08:08:13;;;;;;;0.50;0.50;;;;;;;;;;7415160;19;20189;-86
2023/07/04 08:10:42;;;;;;;0.30;0.30;;;;;;;;;;7425552;19;20121;-87
2023/07/04 08:13:10;;;;;;;0.40;0.40;;;;;;;;;;7424488;19;20129;-85
2023/07/04 08:15:37;;;;;;;0.50;0.50;;;;;;;;;;7423532;19;20191;-85
2023/07/04 08:18:06;;;;;;;0.32;0.32;;;;;;;;;;7422723;19;20126;-86
2023/07/04 08:20:33;;;;;;;0.47;0.47;;;;;;;;;;7422216;19;20145;-86
2023/07/04 08:23:00;;;;;;;0.65;0.65;;;;;;;;;;7424456;19;20133;-86
2023/07/04 08:25:28;;;;;;;0.40;0.40;;;;;;;;;;7419845;19;20164;-85
2023/07/04 08:27:55;;;;;;;0.55;0.55;;;;;;;;;;7424114;19;20144;-86
2023/07/04 08:30:22;;;;;;;0.57;0.57;;;;;;;;;;7401881;19;20141;-86
2023/07/04 08:32:49;;;;;;;0.45;0.45;;;;;;;;;;7394180;19;20136;-88
2023/07/04 08:35:15;;;;;;;0.50;0.50;;;;;;;;;;7391302;19;20181;-88
2023/07/04 08:37:42;;;;;;;0.45;0.45;;;;;;;;;;7393430;19;20144;-87
2023/07/04 08:40:11;;;;;;;0.60;0.60;;;;;;;;;;7391941;19;20150;-89
2023/07/04 08:42:39;;;;;;;0.45;0.45;;;;;;;;;;7392212;19;20154;-88
2023/07/04 08:45:09;;;;;;;0.40;0.40;;;;;;;;;;7392241;19;20600;-88
2023/07/04 08:47:36;;;;;;;0.40;0.40;;;;;;;;;;7392674;19;20208;-88
2023/07/04 08:50:10;;;;;;;0.40;0.40;;;;;;;;;;7390239;19;20218;-88
2023/07/04 08:52:40;;;;;;;0.50;0.50;;;;;;;;;;7391581;19;20141;-88
2023/07/04 08:55:10;;;;;;;0.50;0.50;;;;;;;;;;7389485;19;20151;-90
2023/07/04 08:57:53;;;;;;;0.95;0.85;;;;;;;;;;7391561;19;20209;-87
2023/07/04 09:00:30;;;;;;;0.60;0.60;;;;;;;;;;7393008;19;20216;-87
2023/07/04 09:03:09;;;;;;;0.75;0.68;;;;;;;;;;7392652;19;20140;-87
2023/07/04 09:05:50;;;;;;;0.70;0.70;;;;;;;;;;7396451;19;20141;-87
2023/07/04 09:08:26;;;;;;;0.40;0.40;;;;;;;;;;7395093;19;20479;-87
2023/07/04 09:10:58;;;;;;;0.50;0.50;;;;;;;;;;7392798;19;20148;-87
2023/07/04 09:13:39;;;;;;;0.50;0.50;;;;;;;;;;7392119;19;20476;-87
2023/07/04 09:16:24;;;;;;;0.70;0.70;;;;;;;;;;7393793;19;20160;-85
2023/07/04 09:19:05;;;;;;;0.47;0.47;;;;;;;;;;7396298;19;20209;-85
2023/07/04 09:21:33;;;;;;;0.40;0.40;;;;;;;;;;7395837;19;20594;-85
2023/07/04 09:24:05;;;;;;;0.60;0.60;;;;;;;;;;7400729;19;20196;-87
2023/07/04 09:26:46;;;;;;;0.40;0.40;;;;;;;;;;7398591;19;20168;-84
2023/07/04 09:29:16;;;;;;;0.50;0.50;;;;;;;;;;7404624;19;20143;-84
2023/07/04 09:31:46;;;;;;;0.68;0.68;;;;;;;;;;7414957;19;20133;-85
2023/07/04 09:34:20;;;;;;;0.50;0.50;;;;;;;;;;7408571;19;20196;-86
2023/07/04 09:36:47;;;;;;;0.50;0.50;;;;;;;;;;7397999;19;20526;-85
2023/07/04 09:39:14;;;;;;;0.50;0.50;;;;;;;;;;7395972;19;20137;-85
2023/07/04 09:41:41;;;;;;;0.30;0.30;;;;;;;;;;7393001;19;20141;-85
2023/07/04 09:44:33;;;;;;;0.93;0.65;;;;;;;;;;7393896;19;20491;-86
2023/07/04 09:47:02;;;;;;;1.45;0.50;;;;;;;;;;7393229;19;20231;-85
2023/07/04 09:49:31;;;;;;;0.45;0.45;;;;;;;;;;7396082;19;20147;-85
2023/07/04 09:52:28;;;;;;;0.30;0.30;;;;;;;;;;7394694;19;20176;-85
2023/07/04 09:55:08;;;;;;;0.65;0.65;;;;;;;;;;7393027;19;20728;-87
2023/07/04 09:57:35;;;;;;;0.52;0.52;;;;;;;;;;7393495;19;20472;-86
2023/07/04 10:00:22;;;;;;;0.63;0.63;;;;;;;;;;7393614;19;20137;-86
2023/07/04 10:02:54;;;;;;;0.40;0.40;;;;;;;;;;7392975;19;20141;-87
2023/07/04 10:05:35;;;;;;;0.43;0.43;;;;;;;;;;7392822;19;20530;-85
2023/07/04 10:08:05;;;;;;;0.30;0.30;;;;;;;;;;7390156;19;20168;-87
2023/07/04 10:10:36;;;;;;;0.50;0.50;;;;;;;;;;7393422;19;20141;-86
2023/07/04 10:13:06;;;;;;;0.35;0.35;;;;;;;;;;7391339;19;20659;-88
2023/07/04 10:15:42;;;;;;;0.30;0.30;;;;;;;;;;7393320;19;20213;-86
2023/07/04 10:18:24;;;;;;;0.50;0.50;;;;;;;;;;7392934;19;20157;-86
2023/07/04 10:20:55;;;;;;;0.35;0.35;;;;;;;;;;7393887;19;20605;-86
2023/07/04 10:23:26;;;;;;;0.60;0.60;;;;;;;;;;7392483;19;20141;-87
2023/07/04 10:26:08;;;;;;;0.43;0.43;;;;;;;;;;7390847;19;20176;-85
2023/07/04 10:28:35;;;;;;;0.60;0.55;;;;;;;;;;7393458;19;20164;-85
2023/07/04 10:31:14;;;;;;;0.57;0.57;;;;;;;;;;7391560;19;20618;-86
2023/07/04 10:33:58;;;;;;;0.55;0.55;;;;;;;;;;7393577;19;20136;-86
2023/07/04 10:36:31;;;;;;;0.70;0.70;;;;;;;;;;7390326;19;20161;-87
2023/07/04 10:39:05;;;;;;;0.40;0.40;;;;;;;;;;7391119;19;20141;-87
2023/07/04 10:41:37;;;;;;;0.30;0.30;;;;;;;;;;7390740;19;20140;-87
2023/07/04 10:44:16;;;;;;;0.50;0.50;;;;;;;;;;7391586;19;20145;-85
2023/07/04 10:46:50;;;;;;;0.50;0.50;;;;;;;;;;7390094;19;20244;-88
2023/07/04 10:49:20;;;;;;;0.38;0.38;;;;;;;;;;7391232;19;20188;-86
2023/07/04 10:51:49;;;;;;;0.52;0.52;;;;;;;;;;7390612;19;20250;-86
2023/07/04 10:54:16;;;;;;;0.73;0.65;;;;;;;;;;7390158;19;20133;-86
2023/07/04 10:56:49;;;;;;;0.50;0.50;;;;;;;;;;7396114;19;20164;-87
2023/07/04 10:59:24;;;;;;;0.40;0.40;;;;;;;;;;7391582;19;20668;-86
2023/07/04 11:01:57;;;;;;;0.32;0.32;;;;;;;;;;7391625;19;20145;-88
2023/07/04 11:04:27;;;;;;;0.60;0.60;;;;;;;;;;7391638;19;20499;-88
2023/07/04 11:07:04;;;;;;;0.63;0.63;;;;;;;;;;7392527;19;20161;-88
2023/07/04 11:09:38;;;;;;;0.52;0.52;;;;;;;;;;7390164;19;20140;-87
2023/07/04 11:12:08;;;;;;;0.38;0.38;;;;;;;;;;7395377;19;20137;-88
2023/07/04 11:14:39;;;;;;;0.40;0.40;;;;;;;;;;7395841;19;20154;-85
2023/07/04 11:17:11;;;;;;;0.40;0.40;;;;;;;;;;7397292;19;20176;-86
2023/07/04 11:19:52;;;;;;;0.60;0.60;;;;;;;;;;7396252;19;20145;-87
2023/07/04 11:22:19;;;;;;;0.45;0.45;;;;;;;;;;7399000;19;20161;-87
2023/07/04 11:24:52;;;;;;;0.30;0.30;;;;;;;;;;7398106;19;20145;-88
2023/07/04 11:27:25;;;;;;;0.77;0.77;;;;;;;;;;7400604;19;20137;-86
2023/07/04 11:29:54;;;;;;;0.68;0.68;;;;;;;;;;7396914;19;20165;-88
2023/07/04 11:32:22;;;;;;;0.52;0.52;;;;;;;;;;7400079;19;20193;-87
2023/07/04 11:34:54;;;;;;;0.30;0.30;;;;;;;;;;7398936;19;20133;-87
2023/07/04 11:37:30;;;;;;;0.50;0.50;;;;;;;;;;7399429;19;20216;-87
2023/07/04 11:40:00;;;;;;;0.50;0.50;;;;;;;;;;7399734;19;20137;-88
2023/07/04 11:42:37;;;;;;;0.50;0.50;;;;;;;;;;7398344;19;20133;-87
2023/07/04 11:45:21;;;;;;;0.55;0.55;;;;;;;;;;7397001;19;20164;-87
2023/07/04 11:47:54;;;;;;;0.50;0.50;;;;;;;;;;7398682;19;20147;-85
2023/07/04 11:50:29;;;;;;;0.35;0.35;;;;;;;;;;7399073;19;20141;-88
2023/07/04 11:52:57;;;;;;;0.57;0.57;;;;;;;;;;7398039;19;20136;-87
2023/07/04 11:55:29;;;;;;;0.50;0.50;;;;;;;;;;7398978;19;20145;-87
2023/07/04 11:58:00;;;;;;;0.40;0.38;;;;;;;;;;7398300;19;20160;-87
2023/07/04 12:00:33;;;;;;;;;;;;;;;;;;7400455;19;20385;-88
2023/07/04 12:03:15;;;;;;;;;;;;;;;;;;7397004;19;20251;-88
2023/07/04 12:05:42;;;;;;;;;;;;;;;;;;7399712;19;19942;-89
2023/07/04 12:08:14;;;;;;;0.40;0.40;;;;;;;;;;7397706;19;20191;-88
2023/07/04 12:10:40;;;;;;;0.30;0.30;;;;;;;;;;7400842;19;20133;-88
2023/07/04 12:13:08;;;;;;;0.40;0.40;;;;;;;;;;7401152;19;20133;-87
2023/07/04 12:15:36;;;;;;;1.20;0.60;;;;;;;;;;7398613;19;20149;-88
2023/07/04 12:18:15;;;;;;;0.43;0.43;;;;;;;;;;7399171;19;20153;-88
2023/07/04 12:20:42;;;;;;;0.40;0.40;;;;;;;;;;7396472;19;20133;-87
2023/07/04 12:23:10;;;;;;;0.65;0.50;;;;;;;;;;7394488;19;20204;-88
2023/07/04 12:25:44;;;;;;;0.30;0.30;;;;;;;;;;7393994;19;20173;-87
2023/07/04 12:28:36;;;;;;;0.85;0.85;;;;;;;;;;7396639;19;20129;-87
2023/07/04 12:31:51;;;;;;;1.95;0.55;;;;;;;;;;7396256;19;20139;-88
2023/07/04 12:34:38;;;;;;;0.50;0.50;;;;;;;;;;7393217;19;20763;-89
2023/07/04 12:37:14;;;;;;;0.30;0.30;;;;;;;;;;7392152;19;20170;-88
2023/07/04 12:39:43;;;;;;;0.30;0.30;;;;;;;;;;7394448;19;20148;-87
2023/07/04 12:42:29;;;;;;;0.55;0.55;;;;;;;;;;7393808;19;20141;-87
2023/07/04 12:44:56;;;;;;;0.43;0.43;;;;;;;;;;7394916;19;20200;-87
2023/07/04 12:47:25;;;;;;;0.43;0.35;;;;;;;;;;7389098;19;20144;-87
2023/07/04 12:49:54;;;;;;;0.40;0.40;;;;;;;;;;7394615;19;20499;-87
2023/07/04 12:52:28;;;;;;;0.50;0.50;;;;;;;;;;7395169;19;20129;-86
2023/07/04 12:54:56;;;;;;;0.38;0.38;;;;;;;;;;7397635;19;20206;-87
2023/07/04 12:57:29;;;;;;;0.50;0.50;;;;;;;;;;7391283;19;20501;-88
2023/07/04 13:00:11;;;;;;;;;;;;;;;;;;7393230;19;20022;-87
2023/07/04 13:02:53;;;;;;;0.40;0.40;;;;;;;;;;7390125;19;20184;-87
2023/07/04 13:05:25;;;;;;;0.50;0.50;;;;;;;;;;7388908;19;20185;-87
2023/07/04 13:07:51;;;;;;;0.55;0.55;;;;;;;;;;7387887;19;20539;-87
2023/07/04 13:10:22;;;;;;;0.40;0.40;;;;;;;;;;7388368;19;20141;-88
2023/07/04 13:12:52;;;;;;;0.40;0.40;;;;;;;;;;7388832;19;20141;-88
2023/07/04 13:15:24;;;;;;;0.43;0.43;;;;;;;;;;7396047;19;20183;-89
2023/07/04 13:17:53;;;;;;;0.50;0.50;;;;;;;;;;7391925;19;20628;-88
2023/07/04 13:20:20;;;;;;;0.50;0.50;;;;;;;;;;7388742;19;20536;-88
2023/07/04 13:22:47;;;;;;;0.30;0.30;;;;;;;;;;7392046;19;20216;-89
2023/07/04 13:25:39;;;;;;;0.63;0.50;;;;;;;;;;7390838;19;20192;-89
2023/07/04 13:28:30;;;;;;;0.40;0.40;;;;;;;;;;7395530;19;20844;-91
2023/07/04 13:31:18;;;;;;;0.30;0.30;;;;;;;;;;7389636;19;20542;-86
2023/07/04 13:33:50;;;;;;;0.40;0.40;;;;;;;;;;7390526;19;20204;-89
2023/07/04 13:36:21;;;;;;;0.32;0.32;;;;;;;;;;7391122;19;20225;-88
2023/07/04 13:38:51;;;;;;;0.30;0.30;;;;;;;;;;7393886;19;20151;-85
2023/07/04 13:41:22;;;;;;;0.30;0.30;;;;;;;;;;7391181;19;20134;-91
2023/07/04 13:43:49;;;;;;;0.30;0.30;;;;;;;;;;7392135;19;20149;-87
2023/07/04 13:46:36;;;;;;;0.50;0.50;;;;;;;;;;7390899;19;20177;-86
2023/07/04 13:49:02;;;;;;;0.40;0.40;;;;;;;;;;7390244;19;20534;-86
2023/07/04 13:51:31;;;;;;;0.60;0.60;;;;;;;;;;7394048;19;20133;-87
2023/07/04 13:53:58;;;;;;;0.68;0.50;;;;;;;;;;7394854;19;20605;-87
2023/07/04 13:56:25;;;;;;;0.30;0.30;;;;;;;;;;7392089;19;20152;-87
2023/07/04 13:58:53;;;;;;;0.50;0.50;;;;;;;;;;7393657;19;20204;-87
2023/07/04 14:01:20;;;;;;;0.60;0.60;;;;;;;;;;7395888;19;20136;-87
2023/07/04 14:03:49;;;;;;;0.40;0.40;;;;;;;;;;7391681;19;20132;-88
2023/07/04 14:06:19;;;;;;;0.32;0.32;;;;;;;;;;7393525;19;20160;-87
2023/07/04 14:08:45;;;;;;;0.60;0.60;;;;;;;;;;7392022;19;20160;-87
2023/07/04 14:11:15;;;;;;;0.40;0.40;;;;;;;;;;7394583;19;20484;-87
2023/07/04 14:13:42;;;;;;;0.40;0.40;;;;;;;;;;7394009;19;20133;-87
2023/07/04 14:16:12;;;;;;;0.47;0.47;;;;;;;;;;7391650;19;20160;-87
2023/07/04 14:18:42;;;;;;;0.63;0.63;;;;;;;;;;7391120;19;20137;-87
2023/07/04 14:21:13;;;;;;;0.40;0.40;;;;;;;;;;7391702;19;20141;-85
2023/07/04 14:23:40;;;;;;;0.40;0.40;;;;;;;;;;7392206;19;20585;-86
2023/07/04 14:26:15;;;;;;;0.57;0.57;;;;;;;;;;7392678;19;20155;-86
2023/07/04 14:28:47;;;;;;;0.45;0.45;;;;;;;;;;7393540;19;20147;-87
2023/07/04 14:31:13;;;;;;;0.40;0.40;;;;;;;;;;7393933;19;20480;-86
2023/07/04 14:33:40;;;;;;;0.50;0.50;;;;;;;;;;7392737;19;20150;-87
2023/07/04 14:36:07;;;;;;;0.40;0.40;;;;;;;;;;7390990;19;20144;-88
2023/07/04 14:38:34;;;;;;;0.35;0.35;;;;;;;;;;7392283;19;20470;-88
2023/07/04 14:41:05;;;;;;;0.30;0.30;;;;;;;;;;7391664;19;20141;-88
2023/07/04 14:43:35;;;;;;;0.60;0.60;;;;;;;;;;7389634;19;20622;-86
2023/07/04 14:46:04;;;;;;;0.30;0.30;;;;;;;;;;7392116;19;20646;-87
2023/07/04 14:48:33;;;;;;;0.30;0.30;;;;;;;;;;7401577;19;20592;-87
2023/07/04 14:51:08;;;;;;;0.52;0.52;;;;;;;;;;7406118;19;20145;-86
2023/07/04 14:53:35;;;;;;;0.30;0.30;;;;;;;;;;7399878;19;20673;-87
2023/07/04 14:56:04;;;;;;;0.40;0.40;;;;;;;;;;7399193;19;20176;-86
2023/07/04 14:58:31;;;;;;;0.40;0.40;;;;;;;;;;7398876;19;20208;-87
2023/07/04 15:00:58;;;;;;;0.38;0.38;;;;;;;;;;7400667;19;20141;-86
2023/07/04 15:03:29;;;;;;;0.40;0.40;;;;;;;;;;7394826;19;20133;-87
2023/07/04 15:05:57;;;;;;;1.38;0.95;;;;;;;;;;7398967;19;20172;-86
2023/07/04 15:08:24;;;;;;;0.40;0.40;;;;;;;;;;7399470;19;20208;-88
2023/07/04 15:10:51;;;;;;;0.60;0.60;;;;;;;;;;7397882;19;20133;-87
2023/07/04 15:13:18;;;;;;;0.35;0.35;;;;;;;;;;7395724;19;20137;-87
2023/07/04 15:15:45;;;;;;;0.40;0.40;;;;;;;;;;7398671;19;20162;-87
2023/07/04 15:18:12;;;;;;;0.43;0.43;;;;;;;;;;7397710;19;20125;-87
2023/07/04 15:20:39;;;;;;;0.40;0.40;;;;;;;;;;7399711;19;20125;-87
2023/07/04 15:23:05;;;;;;;0.30;0.30;;;;;;;;;;7397993;19;20145;-87
2023/07/04 15:25:32;;;;;;;0.30;0.30;;;;;;;;;;7398269;19;20175;-87
2023/07/04 15:27:59;;;;;;;0.40;0.40;;;;;;;;;;7399834;19;20125;-88
2023/07/04 15:30:26;;;;;;;0.30;0.30;;;;;;;;;;7397843;19;20136;-86
2023/07/04 15:32:53;;;;;;;0.50;0.50;;;;;;;;;;7394079;19;20133;-88
2023/07/04 15:35:20;;;;;;;0.40;0.40;;;;;;;;;;7393736;19;20553;-88
2023/07/04 15:37:47;;;;;;;0.30;0.30;;;;;;;;;;7394170;19;20220;-87
2023/07/04 15:40:15;;;;;;;0.50;0.50;;;;;;;;;;7392566;19;20486;-86
2023/07/04 15:42:50;;;;;;;0.43;0.43;;;;;;;;;;7395025;19;20147;-88
2023/07/04 15:45:18;;;;;;;0.60;0.60;;;;;;;;;;7392832;19;20144;-86
2023/07/04 15:47:48;;;;;;;0.40;0.40;;;;;;;;;;7394456;19;20220;-87
2023/07/04 15:50:15;;;;;;;0.50;0.50;;;;;;;;;;7391922;19;20204;-88
2023/07/04 15:52:42;;;;;;;0.47;0.47;;;;;;;;;;7396181;19;20147;-87
2023/07/04 15:55:10;;;;;;;0.50;0.43;;;;;;;;;;7399310;19;20473;-90
2023/07/04 15:57:38;;;;;;;0.55;0.55;;;;;;;;;;7392236;19;20137;-89
2023/07/04 16:00:09;;;;;;;0.50;0.38;;;;;;;;;;7393067;19;20152;-91
2023/07/04 16:02:35;;;;;;;0.50;0.50;;;;;;;;;;7395090;19;20144;-90
2023/07/04 16:05:03;;;;;;;0.30;0.30;;;;;;;;;;7399160;19;20151;-89
2023/07/04 16:07:29;;;;;;;0.30;0.30;;;;;;;;;;7394208;19;20573;-91
2023/07/04 16:09:57;;;;;;;0.30;0.30;;;;;;;;;;7393623;19;20145;-89
2023/07/04 16:12:24;;;;;;;0.38;0.38;;;;;;;;;;7395401;19;20154;-90
2023/07/04 16:14:51;;;;;;;0.52;0.52;;;;;;;;;;7392910;19;20571;-89
2023/07/04 16:17:18;;;;;;;0.50;0.50;;;;;;;;;;7395891;19;20137;-89